Queens Village, New York
Current Conditions -  °F | °C
As of 12:51 AM on Monday 26 Jan 2015 (Local Time) from KJFK Reporting Station
Overcast Overcast  
Wind Chill: 21°   Ceiling: 5000
Heat Index: 30°   Visibility: 10mi
Dew Point:   Wind: 10mph
Humidity: 40%   Direction: 30°NNE
Pressure: 30.02"   Gusts: NA
Location:  40.73°N, 73.74°W
Report Text: KJFK 260551Z 03009KT 10SM OVC050 M01/M13 A3002 RMK AO2 SLP164 T10111133 10028 21011 53010 $
Loading
Personal Weather Stations






























Interactive Weather Map New forecast layout! Learn more

10-Day Weather Forecast

Advertisements
Track Severe Weather on mobile